sensor_id;sensor_type;location;lat;lon;timestamp;P1;durP1;ratioP1;P2;durP2;ratioP2
5646;SDS011;2845;48.626;9.362;2022-09-03T00:00:37;1.95;;;0.93;;
5646;SDS011;2845;48.626;9.362;2022-09-03T00:03:19;1.95;;;1.27;;
5646;SDS011;2845;48.626;9.362;2022-09-03T00:06:06;1.83;;;0.93;;
5646;SDS011;2845;48.626;9.362;2022-09-03T00:08:47;1.48;;;0.85;;
5646;SDS011;2845;48.626;9.362;2022-09-03T00:11:32;2.58;;;1.08;;
5646;SDS011;2845;48.626;9.362;2022-09-03T00:14:24;1.63;;;0.80;;
5646;SDS011;2845;48.626;9.362;2022-09-03T00:17:18;2.50;;;1.10;;
5646;SDS011;2845;48.626;9.362;2022-09-03T00:19:59;1.92;;;0.85;;
5646;SDS011;2845;48.626;9.362;2022-09-03T00:22:42;1.90;;;0.75;;
5646;SDS011;2845;48.626;9.362;2022-09-03T00:25:22;2.85;;;1.20;;
5646;SDS011;2845;48.626;9.362;2022-09-03T00:28:03;1.08;;;0.85;;
5646;SDS011;2845;48.626;9.362;2022-09-03T00:30:49;1.23;;;0.73;;
5646;SDS011;2845;48.626;9.362;2022-09-03T00:33:35;1.65;;;0.88;;
5646;SDS011;2845;48.626;9.362;2022-09-03T00:36:20;1.58;;;0.70;;
5646;SDS011;2845;48.626;9.362;2022-09-03T00:39:02;3.40;;;0.82;;
5646;SDS011;2845;48.626;9.362;2022-09-03T00:41:40;1.65;;;0.80;;
5646;SDS011;2845;48.626;9.362;2022-09-03T00:47:51;2.55;;;1.15;;
5646;SDS011;2845;48.626;9.362;2022-09-03T00:50:42;1.33;;;0.82;;
5646;SDS011;2845;48.626;9.362;2022-09-03T00:53:33;1.50;;;0.90;;
5646;SDS011;2845;48.626;9.362;2022-09-03T00:56:19;1.08;;;0.75;;
5646;SDS011;2845;48.626;9.362;2022-09-03T00:59:07;2.03;;;1.00;;
5646;SDS011;2845;48.626;9.362;2022-09-03T01:01:59;1.73;;;0.90;;
5646;SDS011;2845;48.626;9.362;2022-09-03T01:04:44;1.65;;;0.70;;
5646;SDS011;2845;48.626;9.362;2022-09-03T01:07:33;1.65;;;1.00;;
5646;SDS011;2845;48.626;9.362;2022-09-03T01:10:17;1.73;;;0.80;;
5646;SDS011;2845;48.626;9.362;2022-09-03T01:13:04;1.83;;;1.05;;
5646;SDS011;2845;48.626;9.362;2022-09-03T01:15:48;1.98;;;0.98;;
5646;SDS011;2845;48.626;9.362;2022-09-03T01:18:38;1.83;;;0.82;;
5646;SDS011;2845;48.626;9.362;2022-09-03T01:21:34;1.80;;;0.90;;
5646;SDS011;2845;48.626;9.362;2022-09-03T01:24:46;3.15;;;0.90;;
5646;SDS011;2845;48.626;9.362;2022-09-03T01:27:47;2.15;;;0.60;;
5646;SDS011;2845;48.626;9.362;2022-09-03T01:30:48;1.00;;;0.73;;
5646;SDS011;2845;48.626;9.362;2022-09-03T01:33:32;1.75;;;0.88;;
5646;SDS011;2845;48.626;9.362;2022-09-03T01:36:13;2.10;;;0.98;;
5646;SDS011;2845;48.626;9.362;2022-09-03T01:38:58;1.60;;;0.70;;
5646;SDS011;2845;48.626;9.362;2022-09-03T01:41:40;1.30;;;0.80;;
5646;SDS011;2845;48.626;9.362;2022-09-03T01:44:50;2.28;;;0.90;;
5646;SDS011;2845;48.626;9.362;2022-09-03T01:47:48;1.30;;;0.70;;
5646;SDS011;2845;48.626;9.362;2022-09-03T01:50:54;2.13;;;0.73;;
5646;SDS011;2845;48.626;9.362;2022-09-03T01:53:40;2.10;;;0.95;;
5646;SDS011;2845;48.626;9.362;2022-09-03T02:00:10;2.85;;;0.85;;
5646;SDS011;2845;48.626;9.362;2022-09-03T02:02:47;1.63;;;0.80;;
5646;SDS011;2845;48.626;9.362;2022-09-03T02:05:26;1.38;;;0.80;;
5646;SDS011;2845;48.626;9.362;2022-09-03T02:08:02;1.90;;;0.80;;
5646;SDS011;2845;48.626;9.362;2022-09-03T02:10:48;1.42;;;0.88;;
5646;SDS011;2845;48.626;9.362;2022-09-03T02:13:29;3.45;;;1.60;;
5646;SDS011;2845;48.626;9.362;2022-09-03T02:18:54;1.17;;;0.63;;
5646;SDS011;2845;48.626;9.362;2022-09-03T02:21:36;1.98;;;1.10;;
5646;SDS011;2845;48.626;9.362;2022-09-03T02:24:17;1.45;;;0.90;;
5646;SDS011;2845;48.626;9.362;2022-09-03T02:26:52;1.88;;;0.95;;
5646;SDS011;2845;48.626;9.362;2022-09-03T02:29:27;2.80;;;1.20;;
5646;SDS011;2845;48.626;9.362;2022-09-03T02:32:09;1.70;;;1.10;;
5646;SDS011;2845;48.626;9.362;2022-09-03T02:34:46;1.55;;;0.90;;
5646;SDS011;2845;48.626;9.362;2022-09-03T02:37:21;1.70;;;0.80;;
5646;SDS011;2845;48.626;9.362;2022-09-03T02:39:59;1.55;;;0.80;;
5646;SDS011;2845;48.626;9.362;2022-09-03T02:42:37;2.17;;;1.20;;
5646;SDS011;2845;48.626;9.362;2022-09-03T02:45:18;1.95;;;1.23;;
5646;SDS011;2845;48.626;9.362;2022-09-03T02:47:59;2.25;;;1.15;;
5646;SDS011;2845;48.626;9.362;2022-09-03T02:50:38;2.08;;;1.00;;
5646;SDS011;2845;48.626;9.362;2022-09-03T02:53:13;2.03;;;0.82;;
5646;SDS011;2845;48.626;9.362;2022-09-03T02:55:49;2.17;;;1.08;;
5646;SDS011;2845;48.626;9.362;2022-09-03T02:58:23;2.30;;;1.23;;
5646;SDS011;2845;48.626;9.362;2022-09-03T03:01:00;2.50;;;0.85;;
5646;SDS011;2845;48.626;9.362;2022-09-03T03:03:36;1.75;;;1.00;;
5646;SDS011;2845;48.626;9.362;2022-09-03T03:06:11;2.40;;;1.20;;
5646;SDS011;2845;48.626;9.362;2022-09-03T03:08:53;2.35;;;0.73;;
5646;SDS011;2845;48.626;9.362;2022-09-03T03:11:29;2.35;;;1.10;;
5646;SDS011;2845;48.626;9.362;2022-09-03T03:14:03;2.58;;;0.98;;
5646;SDS011;2845;48.626;9.362;2022-09-03T03:16:38;3.50;;;1.42;;
5646;SDS011;2845;48.626;9.362;2022-09-03T03:19:14;2.10;;;1.25;;
5646;SDS011;2845;48.626;9.362;2022-09-03T03:21:48;1.77;;;1.08;;
5646;SDS011;2845;48.626;9.362;2022-09-03T03:24:23;3.30;;;0.73;;
5646;SDS011;2845;48.626;9.362;2022-09-03T03:26:58;3.53;;;1.20;;
5646;SDS011;2845;48.626;9.362;2022-09-03T03:29:39;2.63;;;1.13;;
5646;SDS011;2845;48.626;9.362;2022-09-03T03:32:15;2.33;;;1.10;;
5646;SDS011;2845;48.626;9.362;2022-09-03T03:35:01;2.40;;;1.13;;
5646;SDS011;2845;48.626;9.362;2022-09-03T03:37:36;1.98;;;1.05;;
5646;SDS011;2845;48.626;9.362;2022-09-03T03:40:17;2.33;;;1.30;;
5646;SDS011;2845;48.626;9.362;2022-09-03T03:42:53;2.38;;;1.40;;
5646;SDS011;2845;48.626;9.362;2022-09-03T03:45:30;2.42;;;1.10;;
5646;SDS011;2845;48.626;9.362;2022-09-03T03:48:04;1.85;;;0.85;;
5646;SDS011;2845;48.626;9.362;2022-09-03T03:50:41;1.67;;;0.90;;
5646;SDS011;2845;48.626;9.362;2022-09-03T03:53:16;2.33;;;1.05;;
5646;SDS011;2845;48.626;9.362;2022-09-03T03:55:54;2.28;;;1.20;;
5646;SDS011;2845;48.626;9.362;2022-09-03T03:58:29;2.10;;;0.93;;
5646;SDS011;2845;48.626;9.362;2022-09-03T04:01:07;1.98;;;1.05;;
5646;SDS011;2845;48.626;9.362;2022-09-03T04:03:44;2.97;;;1.20;;
5646;SDS011;2845;48.626;9.362;2022-09-03T04:06:25;2.13;;;1.00;;
5646;SDS011;2845;48.626;9.362;2022-09-03T04:09:05;2.22;;;1.23;;
5646;SDS011;2845;48.626;9.362;2022-09-03T04:11:40;1.20;;;0.80;;
5646;SDS011;2845;48.626;9.362;2022-09-03T04:14:15;2.55;;;1.10;;
5646;SDS011;2845;48.626;9.362;2022-09-03T04:16:51;1.73;;;1.20;;
5646;SDS011;2845;48.626;9.362;2022-09-03T04:19:28;2.83;;;0.98;;
5646;SDS011;2845;48.626;9.362;2022-09-03T04:22:05;2.63;;;0.93;;
5646;SDS011;2845;48.626;9.362;2022-09-03T04:24:41;1.60;;;0.90;;
5646;SDS011;2845;48.626;9.362;2022-09-03T04:27:16;1.83;;;1.13;;
5646;SDS011;2845;48.626;9.362;2022-09-03T04:29:50;1.77;;;1.20;;
5646;SDS011;2845;48.626;9.362;2022-09-03T04:32:26;2.22;;;1.33;;
5646;SDS011;2845;48.626;9.362;2022-09-03T04:35:18;2.13;;;1.10;;
5646;SDS011;2845;48.626;9.362;2022-09-03T04:37:56;2.38;;;1.00;;
5646;SDS011;2845;48.626;9.362;2022-09-03T04:40:35;4.15;;;1.67;;
5646;SDS011;2845;48.626;9.362;2022-09-03T04:43:10;2.28;;;1.02;;
5646;SDS011;2845;48.626;9.362;2022-09-03T04:45:44;2.53;;;1.33;;
5646;SDS011;2845;48.626;9.362;2022-09-03T04:48:19;2.28;;;1.10;;
5646;SDS011;2845;48.626;9.362;2022-09-03T04:51:00;1.77;;;0.90;;
5646;SDS011;2845;48.626;9.362;2022-09-03T04:53:58;2.10;;;0.90;;
5646;SDS011;2845;48.626;9.362;2022-09-03T04:56:35;2.17;;;1.23;;
5646;SDS011;2845;48.626;9.362;2022-09-03T04:59:17;2.35;;;0.90;;
5646;SDS011;2845;48.626;9.362;2022-09-03T05:01:52;3.43;;;0.93;;
5646;SDS011;2845;48.626;9.362;2022-09-03T05:04:28;1.65;;;0.88;;
5646;SDS011;2845;48.626;9.362;2022-09-03T05:07:02;2.00;;;1.23;;
5646;SDS011;2845;48.626;9.362;2022-09-03T05:09:38;1.63;;;1.10;;
5646;SDS011;2845;48.626;9.362;2022-09-03T05:12:13;1.40;;;0.80;;
5646;SDS011;2845;48.626;9.362;2022-09-03T05:14:49;4.47;;;1.27;;
5646;SDS011;2845;48.626;9.362;2022-09-03T05:17:23;1.02;;;0.80;;
5646;SDS011;2845;48.626;9.362;2022-09-03T05:20:00;1.88;;;1.10;;
5646;SDS011;2845;48.626;9.362;2022-09-03T05:22:35;2.22;;;1.30;;
5646;SDS011;2845;48.626;9.362;2022-09-03T05:25:11;2.17;;;1.10;;
5646;SDS011;2845;48.626;9.362;2022-09-03T05:27:46;1.52;;;0.80;;
5646;SDS011;2845;48.626;9.362;2022-09-03T05:30:21;3.55;;;1.13;;
5646;SDS011;2845;48.626;9.362;2022-09-03T05:32:57;3.30;;;1.10;;
5646;SDS011;2845;48.626;9.362;2022-09-03T05:35:32;1.75;;;0.98;;
5646;SDS011;2845;48.626;9.362;2022-09-03T05:38:11;1.73;;;0.85;;
5646;SDS011;2845;48.626;9.362;2022-09-03T05:43:23;3.67;;;1.10;;
5646;SDS011;2845;48.626;9.362;2022-09-03T05:45:58;2.13;;;1.20;;
5646;SDS011;2845;48.626;9.362;2022-09-03T05:48:36;1.90;;;1.00;;
5646;SDS011;2845;48.626;9.362;2022-09-03T05:51:13;1.30;;;0.90;;
5646;SDS011;2845;48.626;9.362;2022-09-03T05:53:51;1.67;;;1.00;;
5646;SDS011;2845;48.626;9.362;2022-09-03T05:56:29;1.60;;;1.00;;
5646;SDS011;2845;48.626;9.362;2022-09-03T05:59:07;2.95;;;1.05;;
5646;SDS011;2845;48.626;9.362;2022-09-03T06:01:47;1.92;;;0.90;;
5646;SDS011;2845;48.626;9.362;2022-09-03T06:04:29;3.95;;;1.20;;
5646;SDS011;2845;48.626;9.362;2022-09-03T06:07:11;1.65;;;0.95;;
5646;SDS011;2845;48.626;9.362;2022-09-03T06:09:46;1.83;;;1.08;;
5646;SDS011;2845;48.626;9.362;2022-09-03T06:12:30;4.25;;;1.25;;
5646;SDS011;2845;48.626;9.362;2022-09-03T06:15:06;1.60;;;1.08;;
5646;SDS011;2845;48.626;9.362;2022-09-03T06:17:41;2.03;;;1.10;;
5646;SDS011;2845;48.626;9.362;2022-09-03T06:20:16;2.22;;;1.10;;
5646;SDS011;2845;48.626;9.362;2022-09-03T06:22:52;1.83;;;0.90;;
5646;SDS011;2845;48.626;9.362;2022-09-03T06:25:26;2.85;;;1.15;;
5646;SDS011;2845;48.626;9.362;2022-09-03T06:28:05;1.65;;;0.95;;
5646;SDS011;2845;48.626;9.362;2022-09-03T06:30:40;2.42;;;1.08;;
5646;SDS011;2845;48.626;9.362;2022-09-03T06:33:14;2.20;;;1.17;;
5646;SDS011;2845;48.626;9.362;2022-09-03T06:36:06;1.67;;;1.00;;
5646;SDS011;2845;48.626;9.362;2022-09-03T06:38:43;1.88;;;1.55;;
5646;SDS011;2845;48.626;9.362;2022-09-03T06:41:23;2.60;;;1.38;;
5646;SDS011;2845;48.626;9.362;2022-09-03T06:44:04;2.67;;;1.73;;
5646;SDS011;2845;48.626;9.362;2022-09-03T06:46:47;1.70;;;1.35;;
5646;SDS011;2845;48.626;9.362;2022-09-03T06:49:29;1.90;;;0.90;;
5646;SDS011;2845;48.626;9.362;2022-09-03T06:52:04;1.48;;;0.98;;
5646;SDS011;2845;48.626;9.362;2022-09-03T06:54:41;1.50;;;0.98;;
5646;SDS011;2845;48.626;9.362;2022-09-03T06:57:16;2.33;;;1.20;;
5646;SDS011;2845;48.626;9.362;2022-09-03T06:59:54;2.05;;;1.30;;
5646;SDS011;2845;48.626;9.362;2022-09-03T07:02:28;1.92;;;1.10;;
5646;SDS011;2845;48.626;9.362;2022-09-03T07:05:03;1.38;;;0.90;;
5646;SDS011;2845;48.626;9.362;2022-09-03T07:07:40;5.28;;;1.30;;
5646;SDS011;2845;48.626;9.362;2022-09-03T07:10:16;2.35;;;1.38;;
5646;SDS011;2845;48.626;9.362;2022-09-03T07:12:53;1.67;;;1.10;;
5646;SDS011;2845;48.626;9.362;2022-09-03T07:15:29;1.80;;;1.10;;
5646;SDS011;2845;48.626;9.362;2022-09-03T07:18:04;1.65;;;0.95;;
5646;SDS011;2845;48.626;9.362;2022-09-03T07:20:39;2.22;;;1.20;;
5646;SDS011;2845;48.626;9.362;2022-09-03T07:23:14;2.70;;;1.10;;
5646;SDS011;2845;48.626;9.362;2022-09-03T07:25:54;1.90;;;1.10;;
5646;SDS011;2845;48.626;9.362;2022-09-03T07:28:30;2.03;;;1.40;;
5646;SDS011;2845;48.626;9.362;2022-09-03T07:31:07;2.85;;;1.40;;
5646;SDS011;2845;48.626;9.362;2022-09-03T07:33:45;3.13;;;1.23;;
5646;SDS011;2845;48.626;9.362;2022-09-03T07:36:20;2.85;;;1.08;;
5646;SDS011;2845;48.626;9.362;2022-09-03T07:38:57;2.72;;;1.40;;
5646;SDS011;2845;48.626;9.362;2022-09-03T07:41:32;3.30;;;1.40;;
5646;SDS011;2845;48.626;9.362;2022-09-03T07:44:07;2.90;;;1.55;;
5646;SDS011;2845;48.626;9.362;2022-09-03T07:46:43;3.92;;;1.75;;
5646;SDS011;2845;48.626;9.362;2022-09-03T07:49:19;3.88;;;1.35;;
5646;SDS011;2845;48.626;9.362;2022-09-03T07:51:54;4.75;;;1.50;;
5646;SDS011;2845;48.626;9.362;2022-09-03T07:54:29;1.88;;;1.23;;
5646;SDS011;2845;48.626;9.362;2022-09-03T07:57:04;2.33;;;1.25;;
5646;SDS011;2845;48.626;9.362;2022-09-03T07:59:41;3.88;;;1.33;;
5646;SDS011;2845;48.626;9.362;2022-09-03T08:02:17;2.97;;;1.63;;
5646;SDS011;2845;48.626;9.362;2022-09-03T08:04:53;2.60;;;1.60;;
5646;SDS011;2845;48.626;9.362;2022-09-03T08:07:28;3.08;;;1.67;;
5646;SDS011;2845;48.626;9.362;2022-09-03T08:10:03;3.85;;;1.50;;
5646;SDS011;2845;48.626;9.362;2022-09-03T08:12:39;3.03;;;1.65;;
5646;SDS011;2845;48.626;9.362;2022-09-03T08:15:14;2.25;;;1.55;;
5646;SDS011;2845;48.626;9.362;2022-09-03T08:17:50;4.80;;;1.42;;
5646;SDS011;2845;48.626;9.362;2022-09-03T08:20:36;2.47;;;1.55;;
5646;SDS011;2845;48.626;9.362;2022-09-03T08:23:17;2.92;;;1.40;;
5646;SDS011;2845;48.626;9.362;2022-09-03T08:25:56;2.75;;;1.48;;
5646;SDS011;2845;48.626;9.362;2022-09-03T08:28:36;3.05;;;1.60;;
5646;SDS011;2845;48.626;9.362;2022-09-03T08:31:12;2.83;;;1.50;;
5646;SDS011;2845;48.626;9.362;2022-09-03T08:33:51;6.43;;;1.88;;
5646;SDS011;2845;48.626;9.362;2022-09-03T08:36:28;3.85;;;1.50;;
5646;SDS011;2845;48.626;9.362;2022-09-03T08:39:05;3.15;;;1.63;;
5646;SDS011;2845;48.626;9.362;2022-09-03T08:41:47;4.38;;;1.50;;
5646;SDS011;2845;48.626;9.362;2022-09-03T08:44:48;2.55;;;1.42;;
5646;SDS011;2845;48.626;9.362;2022-09-03T08:47:28;2.45;;;1.45;;
5646;SDS011;2845;48.626;9.362;2022-09-03T08:50:13;3.08;;;1.40;;
5646;SDS011;2845;48.626;9.362;2022-09-03T08:52:57;4.68;;;1.10;;
5646;SDS011;2845;48.626;9.362;2022-09-03T08:55:41;3.50;;;1.50;;
5646;SDS011;2845;48.626;9.362;2022-09-03T08:58:30;3.10;;;1.60;;
5646;SDS011;2845;48.626;9.362;2022-09-03T09:01:12;3.03;;;1.50;;
5646;SDS011;2845;48.626;9.362;2022-09-03T09:04:03;1.87;;;1.50;;
5646;SDS011;2845;48.626;9.362;2022-09-03T09:06:48;1.83;;;1.17;;
5646;SDS011;2845;48.626;9.362;2022-09-03T09:09:29;2.95;;;1.50;;
5646;SDS011;2845;48.626;9.362;2022-09-03T09:12:12;2.63;;;1.30;;
5646;SDS011;2845;48.626;9.362;2022-09-03T09:15:12;2.30;;;1.33;;
5646;SDS011;2845;48.626;9.362;2022-09-03T09:18:00;3.42;;;1.42;;
5646;SDS011;2845;48.626;9.362;2022-09-03T09:20:48;3.53;;;1.75;;
5646;SDS011;2845;48.626;9.362;2022-09-03T09:23:32;5.65;;;1.80;;
5646;SDS011;2845;48.626;9.362;2022-09-03T09:26:13;2.42;;;1.35;;
5646;SDS011;2845;48.626;9.362;2022-09-03T09:28:54;2.10;;;1.20;;
5646;SDS011;2845;48.626;9.362;2022-09-03T09:31:36;3.60;;;1.48;;
5646;SDS011;2845;48.626;9.362;2022-09-03T09:34:11;2.65;;;1.50;;
5646;SDS011;2845;48.626;9.362;2022-09-03T09:36:47;2.70;;;1.13;;
5646;SDS011;2845;48.626;9.362;2022-09-03T09:39:27;2.92;;;1.17;;
5646;SDS011;2845;48.626;9.362;2022-09-03T09:42:06;2.13;;;1.30;;
5646;SDS011;2845;48.626;9.362;2022-09-03T09:44:43;2.45;;;1.30;;
5646;SDS011;2845;48.626;9.362;2022-09-03T09:47:20;2.97;;;1.48;;
5646;SDS011;2845;48.626;9.362;2022-09-03T09:52:35;1.65;;;1.40;;
5646;SDS011;2845;48.626;9.362;2022-09-03T09:55:13;4.15;;;1.42;;
5646;SDS011;2845;48.626;9.362;2022-09-03T09:57:52;4.32;;;1.80;;
5646;SDS011;2845;48.626;9.362;2022-09-03T10:00:26;2.85;;;1.52;;
5646;SDS011;2845;48.626;9.362;2022-09-03T10:03:05;2.20;;;1.25;;
5646;SDS011;2845;48.626;9.362;2022-09-03T10:05:53;1.70;;;1.30;;
5646;SDS011;2845;48.626;9.362;2022-09-03T10:09:04;2.05;;;1.27;;
5646;SDS011;2845;48.626;9.362;2022-09-03T10:11:42;1.58;;;1.10;;
5646;SDS011;2845;48.626;9.362;2022-09-03T10:14:24;1.38;;;1.10;;
5646;SDS011;2845;48.626;9.362;2022-09-03T10:17:08;1.63;;;1.00;;
5646;SDS011;2845;48.626;9.362;2022-09-03T10:19:54;1.88;;;1.23;;
5646;SDS011;2845;48.626;9.362;2022-09-03T10:22:53;2.65;;;1.60;;
5646;SDS011;2845;48.626;9.362;2022-09-03T10:25:34;1.88;;;1.13;;
5646;SDS011;2845;48.626;9.362;2022-09-03T10:28:21;2.10;;;1.23;;
5646;SDS011;2845;48.626;9.362;2022-09-03T10:31:14;2.15;;;1.33;;
5646;SDS011;2845;48.626;9.362;2022-09-03T10:34:08;2.25;;;1.13;;
5646;SDS011;2845;48.626;9.362;2022-09-03T10:36:55;1.67;;;1.20;;
5646;SDS011;2845;48.626;9.362;2022-09-03T10:39:38;2.00;;;1.50;;
5646;SDS011;2845;48.626;9.362;2022-09-03T10:42:29;1.65;;;1.17;;
5646;SDS011;2845;48.626;9.362;2022-09-03T10:45:20;2.22;;;1.45;;
5646;SDS011;2845;48.626;9.362;2022-09-03T10:48:13;1.55;;;1.20;;
5646;SDS011;2845;48.626;9.362;2022-09-03T10:51:03;2.15;;;1.35;;
5646;SDS011;2845;48.626;9.362;2022-09-03T10:53:57;2.65;;;1.50;;
5646;SDS011;2845;48.626;9.362;2022-09-03T10:56:56;2.30;;;1.40;;
5646;SDS011;2845;48.626;9.362;2022-09-03T10:59:45;2.03;;;1.35;;
5646;SDS011;2845;48.626;9.362;2022-09-03T11:02:56;3.10;;;1.50;;
5646;SDS011;2845;48.626;9.362;2022-09-03T11:06:21;2.53;;;1.30;;
5646;SDS011;2845;48.626;9.362;2022-09-03T11:09:00;1.33;;;1.02;;
5646;SDS011;2845;48.626;9.362;2022-09-03T11:11:44;1.70;;;1.30;;
5646;SDS011;2845;48.626;9.362;2022-09-03T11:14:28;1.67;;;1.17;;
5646;SDS011;2845;48.626;9.362;2022-09-03T11:17:08;1.70;;;1.40;;
5646;SDS011;2845;48.626;9.362;2022-09-03T11:19:54;1.95;;;1.23;;
5646;SDS011;2845;48.626;9.362;2022-09-03T11:22:39;2.00;;;1.33;;
5646;SDS011;2845;48.626;9.362;2022-09-03T11:25:25;2.00;;;1.67;;
5646;SDS011;2845;48.626;9.362;2022-09-03T11:28:08;3.08;;;1.25;;
5646;SDS011;2845;48.626;9.362;2022-09-03T11:31:04;2.05;;;1.25;;
5646;SDS011;2845;48.626;9.362;2022-09-03T11:33:57;2.03;;;1.30;;
5646;SDS011;2845;48.626;9.362;2022-09-03T11:36:41;1.98;;;1.35;;
5646;SDS011;2845;48.626;9.362;2022-09-03T11:39:19;1.52;;;1.02;;
5646;SDS011;2845;48.626;9.362;2022-09-03T11:42:00;2.03;;;1.35;;
5646;SDS011;2845;48.626;9.362;2022-09-03T11:44:40;2.80;;;1.40;;
5646;SDS011;2845;48.626;9.362;2022-09-03T11:47:26;2.13;;;1.20;;
5646;SDS011;2845;48.626;9.362;2022-09-03T11:50:30;1.70;;;1.35;;
5646;SDS011;2845;48.626;9.362;2022-09-03T11:53:23;2.75;;;1.45;;
5646;SDS011;2845;48.626;9.362;2022-09-03T11:56:12;1.90;;;1.25;;
5646;SDS011;2845;48.626;9.362;2022-09-03T11:58:58;1.92;;;1.20;;
5646;SDS011;2845;48.626;9.362;2022-09-03T12:01:55;1.92;;;1.20;;
5646;SDS011;2845;48.626;9.362;2022-09-03T12:04:38;4.25;;;1.48;;
5646;SDS011;2845;48.626;9.362;2022-09-03T12:07:42;2.45;;;1.30;;
5646;SDS011;2845;48.626;9.362;2022-09-03T12:10:45;3.03;;;1.42;;
5646;SDS011;2845;48.626;9.362;2022-09-03T12:13:32;4.68;;;1.75;;
5646;SDS011;2845;48.626;9.362;2022-09-03T12:16:25;3.03;;;1.40;;
5646;SDS011;2845;48.626;9.362;2022-09-03T12:19:35;3.70;;;0.95;;
5646;SDS011;2845;48.626;9.362;2022-09-03T12:22:13;1.92;;;0.98;;
5646;SDS011;2845;48.626;9.362;2022-09-03T12:24:49;1.58;;;0.60;;
5646;SDS011;2845;48.626;9.362;2022-09-03T12:27:26;4.68;;;0.60;;
5646;SDS011;2845;48.626;9.362;2022-09-03T12:30:13;1.17;;;0.35;;
5646;SDS011;2845;48.626;9.362;2022-09-03T12:32:50;3.42;;;0.80;;
5646;SDS011;2845;48.626;9.362;2022-09-03T12:35:36;3.25;;;0.57;;
5646;SDS011;2845;48.626;9.362;2022-09-03T12:38:32;1.90;;;0.60;;
5646;SDS011;2845;48.626;9.362;2022-09-03T12:41:27;3.05;;;0.60;;
5646;SDS011;2845;48.626;9.362;2022-09-03T12:44:05;2.15;;;0.50;;
5646;SDS011;2845;48.626;9.362;2022-09-03T12:46:47;1.42;;;0.47;;
5646;SDS011;2845;48.626;9.362;2022-09-03T12:49:44;1.00;;;0.52;;
5646;SDS011;2845;48.626;9.362;2022-09-03T12:52:24;1.45;;;0.38;;
5646;SDS011;2845;48.626;9.362;2022-09-03T12:55:04;1.73;;;0.50;;
5646;SDS011;2845;48.626;9.362;2022-09-03T12:57:50;3.40;;;0.63;;
5646;SDS011;2845;48.626;9.362;2022-09-03T13:00:38;1.35;;;0.32;;
5646;SDS011;2845;48.626;9.362;2022-09-03T13:03:19;1.25;;;0.40;;
5646;SDS011;2845;48.626;9.362;2022-09-03T13:05:59;1.33;;;0.30;;
5646;SDS011;2845;48.626;9.362;2022-09-03T13:08:40;1.08;;;0.30;;
5646;SDS011;2845;48.626;9.362;2022-09-03T13:13:59;1.52;;;0.50;;
5646;SDS011;2845;48.626;9.362;2022-09-03T13:16:46;3.20;;;0.60;;
5646;SDS011;2845;48.626;9.362;2022-09-03T13:19:50;1.85;;;0.50;;
5646;SDS011;2845;48.626;9.362;2022-09-03T13:22:53;0.95;;;0.52;;
5646;SDS011;2845;48.626;9.362;2022-09-03T13:25:41;0.70;;;0.40;;
5646;SDS011;2845;48.626;9.362;2022-09-03T13:28:29;1.17;;;0.35;;
5646;SDS011;2845;48.626;9.362;2022-09-03T13:31:21;1.80;;;0.50;;
5646;SDS011;2845;48.626;9.362;2022-09-03T13:34:04;0.50;;;0.30;;
5646;SDS011;2845;48.626;9.362;2022-09-03T13:36:43;1.83;;;0.40;;
5646;SDS011;2845;48.626;9.362;2022-09-03T13:39:24;3.05;;;0.55;;
5646;SDS011;2845;48.626;9.362;2022-09-03T13:42:05;0.47;;;0.30;;
5646;SDS011;2845;48.626;9.362;2022-09-03T13:44:46;1.92;;;0.20;;
5646;SDS011;2845;48.626;9.362;2022-09-03T13:47:27;0.55;;;0.30;;
5646;SDS011;2845;48.626;9.362;2022-09-03T13:50:20;1.13;;;0.55;;
5646;SDS011;2845;48.626;9.362;2022-09-03T13:52:59;1.05;;;0.40;;
5646;SDS011;2845;48.626;9.362;2022-09-03T13:55:42;1.42;;;0.55;;
5646;SDS011;2845;48.626;9.362;2022-09-03T13:58:21;0.90;;;0.35;;
5646;SDS011;2845;48.626;9.362;2022-09-03T14:01:09;0.68;;;0.30;;
5646;SDS011;2845;48.626;9.362;2022-09-03T14:03:52;0.88;;;0.30;;
5646;SDS011;2845;48.626;9.362;2022-09-03T14:06:36;0.95;;;0.30;;
5646;SDS011;2845;48.626;9.362;2022-09-03T14:09:14;1.17;;;0.40;;
5646;SDS011;2845;48.626;9.362;2022-09-03T14:12:03;0.50;;;0.30;;
5646;SDS011;2845;48.626;9.362;2022-09-03T14:14:49;0.50;;;0.30;;
5646;SDS011;2845;48.626;9.362;2022-09-03T14:17:35;0.50;;;0.30;;
5646;SDS011;2845;48.626;9.362;2022-09-03T14:20:18;0.50;;;0.30;;
5646;SDS011;2845;48.626;9.362;2022-09-03T14:23:03;0.70;;;0.30;;
5646;SDS011;2845;48.626;9.362;2022-09-03T14:25:51;0.55;;;0.32;;
5646;SDS011;2845;48.626;9.362;2022-09-03T14:28:28;0.70;;;0.30;;
5646;SDS011;2845;48.626;9.362;2022-09-03T14:31:10;0.35;;;0.30;;
5646;SDS011;2845;48.626;9.362;2022-09-03T14:33:57;0.50;;;0.30;;
5646;SDS011;2845;48.626;9.362;2022-09-03T14:36:43;1.10;;;0.40;;
5646;SDS011;2845;48.626;9.362;2022-09-03T14:39:32;0.30;;;0.20;;
5646;SDS011;2845;48.626;9.362;2022-09-03T14:42:20;0.57;;;0.30;;
5646;SDS011;2845;48.626;9.362;2022-09-03T14:48:48;0.60;;;0.30;;
5646;SDS011;2845;48.626;9.362;2022-09-03T14:51:45;0.43;;;0.40;;
5646;SDS011;2845;48.626;9.362;2022-09-03T14:54:47;0.30;;;0.20;;
5646;SDS011;2845;48.626;9.362;2022-09-03T14:57:52;0.45;;;0.30;;
5646;SDS011;2845;48.626;9.362;2022-09-03T15:01:09;0.90;;;0.30;;
5646;SDS011;2845;48.626;9.362;2022-09-03T15:07:09;0.35;;;0.30;;
5646;SDS011;2845;48.626;9.362;2022-09-03T15:10:02;0.40;;;0.20;;
5646;SDS011;2845;48.626;9.362;2022-09-03T15:12:48;2.53;;;0.22;;
5646;SDS011;2845;48.626;9.362;2022-09-03T15:18:14;0.70;;;0.30;;
5646;SDS011;2845;48.626;9.362;2022-09-03T15:21:00;0.60;;;0.30;;
5646;SDS011;2845;48.626;9.362;2022-09-03T15:23:55;0.98;;;0.35;;
5646;SDS011;2845;48.626;9.362;2022-09-03T15:26:49;1.27;;;0.38;;
5646;SDS011;2845;48.626;9.362;2022-09-03T15:29:39;0.85;;;0.30;;
5646;SDS011;2845;48.626;9.362;2022-09-03T15:32:45;0.65;;;0.50;;
5646;SDS011;2845;48.626;9.362;2022-09-03T15:35:44;0.47;;;0.40;;
5646;SDS011;2845;48.626;9.362;2022-09-03T15:38:38;1.40;;;0.20;;
5646;SDS011;2845;48.626;9.362;2022-09-03T15:41:28;0.70;;;0.40;;
5646;SDS011;2845;48.626;9.362;2022-09-03T15:44:14;1.33;;;0.40;;
5646;SDS011;2845;48.626;9.362;2022-09-03T15:46:52;1.27;;;0.40;;
5646;SDS011;2845;48.626;9.362;2022-09-03T15:49:34;1.02;;;0.38;;
5646;SDS011;2845;48.626;9.362;2022-09-03T15:52:28;0.32;;;0.28;;
5646;SDS011;2845;48.626;9.362;2022-09-03T15:55:07;0.70;;;0.20;;
5646;SDS011;2845;48.626;9.362;2022-09-03T15:57:49;0.45;;;0.30;;
5646;SDS011;2845;48.626;9.362;2022-09-03T16:00:49;1.17;;;0.63;;
5646;SDS011;2845;48.626;9.362;2022-09-03T16:03:33;0.70;;;0.40;;
5646;SDS011;2845;48.626;9.362;2022-09-03T16:06:20;1.95;;;0.38;;
5646;SDS011;2845;48.626;9.362;2022-09-03T16:09:17;0.93;;;0.45;;
5646;SDS011;2845;48.626;9.362;2022-09-03T16:12:03;0.60;;;0.40;;
5646;SDS011;2845;48.626;9.362;2022-09-03T16:14:49;0.75;;;0.40;;
5646;SDS011;2845;48.626;9.362;2022-09-03T16:17:38;0.93;;;0.38;;
5646;SDS011;2845;48.626;9.362;2022-09-03T16:20:24;0.40;;;0.30;;
5646;SDS011;2845;48.626;9.362;2022-09-03T16:23:09;1.27;;;0.40;;
5646;SDS011;2845;48.626;9.362;2022-09-03T16:25:54;1.33;;;0.63;;
5646;SDS011;2845;48.626;9.362;2022-09-03T16:28:36;0.82;;;0.50;;
5646;SDS011;2845;48.626;9.362;2022-09-03T16:31:27;0.47;;;0.35;;
5646;SDS011;2845;48.626;9.362;2022-09-03T16:34:20;0.70;;;0.30;;
5646;SDS011;2845;48.626;9.362;2022-09-03T16:37:07;0.57;;;0.30;;
5646;SDS011;2845;48.626;9.362;2022-09-03T16:39:53;0.98;;;0.60;;
5646;SDS011;2845;48.626;9.362;2022-09-03T16:42:43;0.68;;;0.32;;
5646;SDS011;2845;48.626;9.362;2022-09-03T16:45:28;0.50;;;0.30;;
5646;SDS011;2845;48.626;9.362;2022-09-03T16:48:17;0.90;;;0.50;;
5646;SDS011;2845;48.626;9.362;2022-09-03T16:53:52;1.60;;;0.40;;
5646;SDS011;2845;48.626;9.362;2022-09-03T16:56:58;0.60;;;0.30;;
5646;SDS011;2845;48.626;9.362;2022-09-03T16:59:58;1.10;;;0.40;;
5646;SDS011;2845;48.626;9.362;2022-09-03T17:06:04;0.93;;;0.43;;
5646;SDS011;2845;48.626;9.362;2022-09-03T17:08:57;0.90;;;0.40;;
5646;SDS011;2845;48.626;9.362;2022-09-03T17:11:46;0.80;;;0.38;;
5646;SDS011;2845;48.626;9.362;2022-09-03T17:14:38;0.60;;;0.30;;
5646;SDS011;2845;48.626;9.362;2022-09-03T17:20:47;0.75;;;0.40;;
5646;SDS011;2845;48.626;9.362;2022-09-03T17:24:04;1.80;;;0.40;;
5646;SDS011;2845;48.626;9.362;2022-09-03T17:27:10;0.57;;;0.30;;
5646;SDS011;2845;48.626;9.362;2022-09-03T17:30:19;0.30;;;0.30;;
5646;SDS011;2845;48.626;9.362;2022-09-03T17:36:12;0.90;;;0.50;;